createdAt,value
2022-09-23T00:02:31.410Z,88.25
2022-09-23T00:05:34.298Z,88.78
2022-09-23T00:08:36.740Z,89.49
2022-09-23T00:11:39.082Z,91.19
2022-09-23T00:14:41.133Z,92.20
2022-09-23T00:17:44.429Z,91.50
2022-09-23T00:20:46.768Z,91.29
2022-09-23T00:23:49.635Z,90.26
2022-09-23T00:26:51.692Z,88.60
2022-09-23T00:29:54.026Z,89.63
2022-09-23T00:32:56.776Z,89.11
2022-09-23T00:36:00.487Z,88.85
2022-09-23T00:39:04.468Z,88.90
2022-09-23T00:42:14.031Z,89.58
2022-09-23T00:45:16.867Z,90.51
2022-09-23T00:48:20.846Z,90.79
2022-09-23T00:51:28.024Z,91.57
2022-09-23T00:54:31.132Z,92.38
2022-09-23T00:57:35.004Z,91.19
2022-09-23T01:00:37.598Z,90.56
2022-09-23T01:03:42.949Z,90.19
2022-09-23T01:06:45.285Z,89.97
2022-09-23T01:09:48.616Z,89.71
2022-09-23T01:13:17.256Z,89.78
2022-09-23T01:16:46.993Z,90.85
2022-09-23T01:20:13.781Z,90.96
2022-09-23T01:23:46.590Z,91.26
2022-09-23T01:26:56.585Z,91.69
2022-09-23T01:30:16.761Z,91.97
2022-09-23T01:33:43.135Z,91.99
2022-09-23T01:36:55.311Z,92.59
2022-09-23T01:40:06.763Z,93.23
2022-09-23T01:43:31.169Z,91.83
2022-09-23T01:46:42.431Z,91.41
2022-09-23T01:49:53.187Z,91.01
2022-09-23T01:53:01.492Z,91.97
2022-09-23T01:56:10.693Z,91.92
2022-09-23T01:59:26.549Z,91.63
2022-09-23T02:02:31.718Z,91.05
2022-09-23T02:05:39.477Z,90.79
2022-09-23T02:08:56.517Z,91.65
2022-09-23T02:12:05.690Z,91.34
2022-09-23T02:15:16.230Z,91.98
2022-09-23T02:18:26.539Z,92.02
2022-09-23T02:21:34.330Z,91.46
2022-09-23T02:24:39.429Z,92.75
2022-09-23T02:27:49.685Z,93.00
2022-09-23T02:31:03.652Z,93.15
2022-09-23T02:34:25.919Z,93.23
2022-09-23T02:37:43.433Z,92.42
2022-09-23T02:41:06.611Z,92.21
2022-09-23T02:44:12.695Z,91.62
2022-09-23T02:47:18.161Z,90.95
2022-09-23T02:50:22.245Z,91.72
2022-09-23T02:53:24.798Z,92.59
2022-09-23T02:56:28.147Z,92.70
2022-09-23T02:59:31.481Z,92.79
2022-09-23T03:03:00.069Z,92.59
2022-09-23T03:06:15.593Z,92.44
2022-09-23T03:09:33.872Z,92.99
2022-09-23T03:12:47.995Z,92.72
2022-09-23T03:16:35.571Z,92.26
2022-09-23T03:19:48.309Z,92.36
2022-09-23T03:22:56.890Z,92.71
2022-09-23T03:26:06.140Z,92.86
2022-09-23T03:29:11.402Z,94.55
2022-09-23T03:32:17.206Z,93.80
2022-09-23T03:35:23.455Z,93.49
2022-09-23T03:38:34.188Z,92.12
2022-09-23T03:41:41.834Z,93.03
2022-09-23T03:44:48.096Z,92.80
2022-09-23T03:47:50.413Z,92.71
2022-09-23T03:50:52.500Z,92.35
2022-09-23T03:53:54.862Z,93.00
2022-09-23T03:56:58.261Z,93.48
2022-09-23T04:00:00.628Z,92.97
2022-09-23T04:03:02.861Z,94.04
2022-09-23T04:06:05.340Z,94.28
2022-09-23T04:09:08.188Z,93.83
2022-09-23T04:12:14.723Z,93.93
2022-09-23T04:15:17.063Z,93.37
2022-09-23T04:18:19.435Z,93.29
2022-09-23T04:21:22.056Z,93.34
2022-09-23T04:24:24.491Z,93.49
2022-09-23T04:27:26.526Z,93.31
2022-09-23T04:30:28.864Z,93.54
2022-09-23T04:33:31.363Z,93.89
2022-09-23T04:36:33.731Z,94.47
2022-09-23T04:39:35.836Z,94.95
2022-09-23T04:42:38.158Z,94.77
2022-09-23T04:45:40.228Z,94.82
2022-09-23T04:48:42.965Z,94.68
2022-09-23T04:51:45.849Z,94.47
2022-09-23T04:54:48.453Z,94.43
2022-09-23T04:57:50.579Z,94.88
2022-09-23T05:00:52.986Z,94.98
2022-09-23T05:04:05.380Z,94.50
2022-09-23T05:07:07.787Z,94.60
2022-09-23T05:10:10.236Z,94.79
2022-09-23T05:13:12.943Z,94.43
2022-09-23T05:16:15.639Z,93.64
2022-09-23T05:19:18.017Z,93.55
2022-09-23T05:22:20.095Z,93.30
2022-09-23T05:25:25.202Z,93.32
2022-09-23T05:28:32.851Z,93.72
2022-09-23T05:31:36.590Z,94.57
2022-09-23T05:34:38.890Z,94.64
2022-09-23T05:37:41.385Z,94.83
2022-09-23T05:40:43.751Z,94.21
2022-09-23T05:43:47.348Z,94.06
2022-09-23T05:46:49.646Z,94.15
2022-09-23T05:50:00.529Z,94.47
2022-09-23T05:53:02.923Z,95.11
2022-09-23T05:56:06.477Z,95.12
2022-09-23T05:59:08.691Z,95.07
2022-09-23T06:02:11.158Z,95.76
2022-09-23T06:05:13.837Z,96.75
2022-09-23T06:08:15.986Z,96.13
2022-09-23T06:11:18.686Z,96.14
2022-09-23T06:14:20.766Z,95.44
2022-09-23T06:17:23.084Z,95.28
2022-09-23T06:20:25.608Z,95.42
2022-09-23T06:23:28.507Z,95.44
2022-09-23T06:26:33.532Z,95.44
2022-09-23T06:29:36.921Z,96.09
2022-09-23T06:32:38.997Z,95.98
2022-09-23T06:35:43.801Z,96.41
2022-09-23T06:38:49.350Z,96.35
2022-09-23T06:41:51.660Z,96.37
2022-09-23T06:44:53.726Z,96.22
2022-09-23T06:47:58.852Z,96.11
2022-09-23T06:51:02.529Z,96.10
2022-09-23T06:54:04.898Z,96.66
2022-09-23T06:57:06.950Z,96.21
2022-09-23T07:00:09.979Z,96.95
2022-09-23T07:03:12.065Z,97.40
2022-09-23T07:06:14.739Z,95.94
2022-09-23T07:09:16.846Z,95.33
2022-09-23T07:12:19.246Z,95.19
2022-09-23T07:15:21.389Z,94.37
2022-09-23T07:18:25.453Z,94.59
2022-09-23T07:21:27.864Z,94.28
2022-09-23T07:24:30.244Z,93.48
2022-09-23T07:27:33.233Z,92.60
2022-09-23T07:30:50.876Z,91.91
2022-09-23T07:33:58.310Z,91.57
2022-09-23T07:37:00.668Z,90.39
2022-09-23T07:40:03.032Z,89.45
2022-09-23T07:43:08.347Z,89.01
2022-09-23T07:46:14.416Z,87.98
2022-09-23T07:49:17.327Z,87.00
2022-09-23T07:52:20.168Z,86.32
2022-09-23T07:55:22.542Z,85.57
2022-09-23T07:58:25.929Z,83.77
2022-09-23T08:01:40.555Z,81.32
2022-09-23T08:04:42.984Z,76.23
2022-09-23T08:07:45.090Z,71.88
2022-09-23T08:10:47.580Z,69.19
2022-09-23T08:13:49.632Z,64.76
2022-09-23T08:16:52.407Z,64.22
2022-09-23T08:19:54.532Z,61.21
2022-09-23T08:22:56.834Z,60.45
2022-09-23T08:26:04.907Z,58.84
2022-09-23T08:29:10.151Z,56.54
2022-09-23T08:32:12.620Z,55.24
2022-09-23T08:35:15.447Z,53.78
2022-09-23T08:38:17.757Z,51.23
2022-09-23T08:41:29.386Z,51.28
2022-09-23T08:44:50.915Z,50.50
2022-09-23T08:48:08.522Z,51.07
2022-09-23T08:51:18.339Z,51.72
2022-09-23T08:54:20.994Z,50.06
2022-09-23T08:57:39.888Z,49.26
2022-09-23T09:00:46.143Z,49.90
2022-09-23T09:03:56.771Z,50.35
2022-09-23T09:07:34.705Z,50.96
2022-09-23T09:10:43.915Z,49.99
2022-09-23T09:13:59.704Z,49.21
2022-09-23T09:17:07.908Z,49.60
2022-09-23T09:20:19.264Z,50.25
2022-09-23T09:23:22.811Z,50.45
2022-09-23T09:26:33.583Z,49.70
2022-09-23T09:29:41.261Z,51.39
2022-09-23T09:33:01.605Z,50.53
2022-09-23T09:36:25.241Z,52.25
2022-09-23T09:39:41.070Z,52.49
2022-09-23T09:42:48.438Z,50.14
2022-09-23T09:46:15.107Z,51.87
2022-09-23T09:49:38.117Z,52.62
2022-09-23T09:52:43.250Z,54.00
2022-09-23T09:55:46.112Z,51.96
2022-09-23T09:58:50.102Z,52.53
2022-09-23T10:02:14.081Z,54.43
2022-09-23T10:05:45.432Z,52.19
2022-09-23T10:09:02.259Z,53.53
2022-09-23T10:12:15.619Z,53.26
2022-09-23T10:15:34.728Z,54.46
2022-09-23T10:18:48.142Z,53.35
2022-09-23T10:21:56.573Z,53.33
2022-09-23T10:25:20.911Z,52.53
2022-09-23T10:28:46.335Z,50.66
2022-09-23T10:31:52.737Z,51.58
2022-09-23T10:35:08.888Z,50.94
2022-09-23T10:38:11.402Z,53.33
2022-09-23T10:41:38.682Z,51.02
2022-09-23T10:45:12.097Z,51.66
2022-09-23T10:48:34.032Z,50.61
2022-09-23T10:51:43.587Z,53.81
2022-09-23T10:55:17.209Z,55.22
2022-09-23T10:58:51.683Z,55.98
2022-09-23T11:02:00.623Z,52.74
2022-09-23T11:05:19.437Z,53.71
2022-09-23T11:08:33.749Z,55.82
2022-09-23T11:11:51.096Z,55.97
2022-09-23T11:15:19.983Z,57.73
2022-09-23T11:18:29.720Z,58.67
2022-09-23T11:21:46.934Z,57.86
2022-09-23T11:25:18.686Z,54.91
2022-09-23T11:28:58.353Z,55.24
2022-09-23T11:32:27.567Z,55.28
2022-09-23T11:35:49.862Z,55.81
2022-09-23T11:38:54.988Z,56.06
2022-09-23T11:42:01.052Z,56.32
2022-09-23T11:45:35.606Z,55.65
2022-09-23T11:49:06.312Z,57.72
2022-09-23T11:52:12.827Z,57.85
2022-09-23T11:55:31.483Z,58.32
2022-09-23T11:58:59.805Z,59.15
2022-09-23T12:02:18.993Z,57.75
2022-09-23T12:05:27.942Z,58.61
2022-09-23T12:08:36.509Z,54.18
2022-09-23T12:11:54.818Z,53.63
2022-09-23T12:15:12.327Z,52.78
2022-09-23T12:18:49.797Z,53.35
2022-09-23T12:22:10.166Z,56.92
2022-09-23T12:25:31.223Z,56.98
2022-09-23T12:28:47.990Z,58.52
2022-09-23T12:31:53.689Z,58.08
2022-09-23T12:35:00.978Z,59.88
2022-09-23T12:38:22.557Z,58.75
2022-09-23T12:41:42.507Z,54.19
2022-09-23T12:44:48.619Z,53.92
2022-09-23T12:47:50.668Z,54.87
2022-09-23T12:51:06.612Z,55.52
2022-09-23T12:54:22.419Z,53.22
2022-09-23T12:57:34.021Z,47.95
2022-09-23T13:00:36.203Z,50.23
2022-09-23T13:04:04.159Z,46.48
2022-09-23T13:07:09.141Z,48.16
2022-09-23T13:10:34.023Z,48.38
2022-09-23T13:13:39.829Z,48.18
2022-09-23T13:16:46.126Z,47.74
2022-09-23T13:19:59.411Z,48.70
2022-09-23T13:23:17.552Z,48.35
2022-09-23T13:26:19.669Z,48.02
2022-09-23T13:29:33.201Z,47.27
2022-09-23T13:32:44.702Z,47.93
2022-09-23T13:35:53.072Z,48.76
2022-09-23T13:39:14.964Z,48.68
2022-09-23T13:42:30.206Z,50.61
2022-09-23T13:45:37.990Z,50.09
2022-09-23T13:48:44.175Z,51.61
2022-09-23T13:51:46.371Z,50.83
2022-09-23T13:54:50.081Z,52.48
2022-09-23T13:58:23.793Z,50.05
2022-09-23T14:01:34.744Z,50.52
2022-09-23T14:04:37.615Z,52.88
2022-09-23T14:07:40.050Z,53.98
2022-09-23T14:10:45.984Z,56.24
2022-09-23T14:13:54.183Z,55.10
2022-09-23T14:16:57.409Z,54.14
2022-09-23T14:19:59.489Z,54.60
2022-09-23T14:23:14.642Z,48.87
2022-09-23T14:26:18.030Z,52.04
2022-09-23T14:29:26.895Z,54.81
2022-09-23T14:32:30.104Z,55.61
2022-09-23T14:35:42.726Z,55.51
2022-09-23T14:38:50.552Z,55.05
2022-09-23T14:41:53.187Z,56.66
2022-09-23T14:44:55.974Z,57.93
2022-09-23T14:48:01.157Z,55.58
2022-09-23T14:51:10.935Z,50.29
2022-09-23T14:54:50.578Z,50.69
2022-09-23T14:58:02.216Z,51.63
2022-09-23T15:01:24.690Z,47.44
2022-09-23T15:04:27.742Z,47.13
2022-09-23T15:07:30.088Z,45.17
2022-09-23T15:10:38.082Z,45.35
2022-09-23T15:13:46.986Z,45.62
2022-09-23T15:16:49.181Z,44.70
2022-09-23T15:19:56.668Z,45.37
2022-09-23T15:22:58.771Z,44.77
2022-09-23T15:26:06.988Z,45.75
2022-09-23T15:29:10.188Z,46.51
2022-09-23T15:32:12.518Z,45.83
2022-09-23T15:35:18.578Z,45.72
2022-09-23T15:38:21.945Z,45.95
2022-09-23T15:41:24.371Z,46.19
2022-09-23T15:44:29.594Z,46.23
2022-09-23T15:47:31.759Z,47.20
2022-09-23T15:50:35.747Z,46.33
2022-09-23T15:53:38.235Z,47.14
2022-09-23T15:56:40.621Z,47.85
2022-09-23T15:59:43.113Z,48.47
2022-09-23T16:02:48.624Z,47.31
2022-09-23T16:05:51.814Z,48.46
2022-09-23T16:08:54.591Z,48.72
2022-09-23T16:11:57.095Z,49.36
2022-09-23T16:14:59.183Z,50.34
2022-09-23T16:18:01.681Z,50.72
2022-09-23T16:21:04.596Z,52.32
2022-09-23T16:24:15.706Z,50.41
2022-09-23T16:27:18.975Z,50.08
2022-09-23T16:30:23.035Z,50.90
2022-09-23T16:33:25.171Z,51.58
2022-09-23T16:36:33.080Z,52.14
2022-09-23T16:39:35.177Z,52.00
2022-09-23T16:42:38.270Z,52.73
2022-09-23T16:45:40.551Z,56.23
2022-09-23T16:48:46.993Z,56.68
2022-09-23T16:51:51.849Z,58.33
2022-09-23T16:54:54.211Z,58.54
2022-09-23T16:57:56.330Z,58.73
2022-09-23T17:01:17.746Z,59.18
2022-09-23T17:04:20.059Z,60.13
2022-09-23T17:07:22.584Z,60.13
2022-09-23T17:10:24.645Z,59.59
2022-09-23T17:13:28.086Z,59.05
2022-09-23T17:16:32.143Z,59.96
2022-09-23T17:19:34.703Z,60.09
2022-09-23T17:22:36.795Z,61.29
2022-09-23T17:25:39.122Z,59.62
2022-09-23T17:28:41.198Z,60.12
2022-09-23T17:31:43.672Z,60.46
2022-09-23T17:34:45.880Z,59.73
2022-09-23T17:37:48.223Z,61.07
2022-09-23T17:40:55.392Z,62.67
2022-09-23T17:43:58.571Z,64.31
2022-09-23T17:47:00.834Z,66.03
2022-09-23T17:50:03.355Z,66.53
2022-09-23T17:53:05.589Z,66.01
2022-09-23T17:56:12.779Z,66.09
2022-09-23T17:59:14.871Z,67.88
2022-09-23T18:02:17.282Z,67.03
2022-09-23T18:05:19.752Z,67.77
2022-09-23T18:08:21.800Z,67.56
2022-09-23T18:11:26.378Z,67.71
2022-09-23T18:14:28.867Z,66.90
2022-09-23T18:17:31.245Z,66.43
2022-09-23T18:20:33.316Z,66.36
2022-09-23T18:23:37.234Z,65.86
2022-09-23T18:26:39.902Z,66.69
2022-09-23T18:29:42.255Z,67.12
2022-09-23T18:32:44.938Z,66.27
2022-09-23T18:35:47.287Z,65.94
2022-09-23T18:38:50.473Z,66.18
2022-09-23T18:41:52.808Z,66.56
2022-09-23T18:44:56.418Z,66.98
2022-09-23T18:48:17.387Z,67.92
2022-09-23T18:51:21.501Z,68.62
2022-09-23T18:54:25.857Z,70.24
2022-09-23T18:57:27.946Z,71.44
2022-09-23T19:00:30.347Z,72.40
2022-09-23T19:03:33.822Z,73.52
2022-09-23T19:06:37.341Z,74.24
2022-09-23T19:09:39.439Z,74.46
2022-09-23T19:12:41.801Z,74.34
2022-09-23T19:15:43.889Z,73.61
2022-09-23T19:18:46.765Z,72.92
2022-09-23T19:21:48.914Z,72.22
2022-09-23T19:24:51.318Z,72.34
2022-09-23T19:27:53.784Z,73.47
2022-09-23T19:30:56.396Z,73.90
2022-09-23T19:34:09.943Z,74.24
2022-09-23T19:37:12.471Z,75.52
2022-09-23T19:40:15.403Z,76.04
2022-09-23T19:43:18.263Z,77.13
2022-09-23T19:46:20.847Z,78.16
2022-09-23T19:49:24.443Z,79.34
2022-09-23T19:52:26.706Z,80.28
2022-09-23T19:55:29.370Z,81.15
2022-09-23T19:58:33.018Z,81.95
2022-09-23T20:01:35.976Z,80.86
2022-09-23T20:04:38.551Z,80.90
2022-09-23T20:07:41.880Z,80.50
2022-09-23T20:10:46.740Z,80.56
2022-09-23T20:13:53.639Z,80.73
2022-09-23T20:16:56.022Z,81.32
2022-09-23T20:19:58.675Z,81.29
2022-09-23T20:23:01.042Z,80.91
2022-09-23T20:26:23.647Z,81.07
2022-09-23T20:29:26.388Z,80.52
2022-09-23T20:32:28.971Z,80.06
2022-09-23T20:35:33.100Z,80.93
2022-09-23T20:38:36.432Z,81.47
2022-09-23T20:41:39.562Z,82.59
2022-09-23T20:44:44.049Z,83.60
2022-09-23T20:47:46.376Z,83.55
2022-09-23T20:50:51.080Z,83.71
2022-09-23T20:53:53.390Z,83.75
2022-09-23T20:56:55.464Z,83.86
2022-09-23T20:59:58.149Z,84.40
2022-09-23T21:03:00.519Z,84.43
2022-09-23T21:06:06.193Z,84.51
2022-09-23T21:09:08.708Z,85.14
2022-09-23T21:12:11.523Z,84.87
2022-09-23T21:15:13.713Z,84.26
2022-09-23T21:18:20.429Z,83.99
2022-09-23T21:21:24.665Z,83.83
2022-09-23T21:27:53.950Z,83.13
2022-09-23T21:31:05.961Z,84.13
2022-09-23T21:34:14.504Z,84.11
2022-09-23T21:37:17.565Z,84.50
2022-09-23T21:40:38.480Z,84.95
2022-09-23T21:43:41.413Z,84.32
2022-09-23T21:46:43.573Z,84.97
2022-09-23T21:49:49.906Z,84.11
2022-09-23T21:52:53.440Z,83.11
2022-09-23T21:56:04.734Z,82.88
2022-09-23T21:59:08.028Z,83.24
2022-09-23T22:02:10.348Z,83.69
2022-09-23T22:05:12.692Z,84.87
2022-09-23T22:08:14.745Z,85.32
2022-09-23T22:11:41.127Z,85.52
2022-09-23T22:14:43.335Z,84.35
2022-09-23T22:17:48.006Z,84.43
2022-09-23T22:20:50.227Z,84.36
2022-09-23T22:23:54.104Z,84.27
2022-09-23T22:26:56.248Z,85.09
2022-09-23T22:30:17.025Z,85.09
2022-09-23T22:33:19.117Z,85.20
2022-09-23T22:36:21.861Z,86.02
2022-09-23T22:39:25.367Z,85.14
2022-09-23T22:42:27.975Z,85.23
2022-09-23T22:45:30.168Z,84.99
2022-09-23T22:48:32.502Z,85.00
2022-09-23T22:51:34.713Z,84.96
2022-09-23T22:54:37.453Z,85.04
2022-09-23T22:57:39.746Z,85.71
2022-09-23T23:00:42.085Z,85.94
2022-09-23T23:03:45.629Z,85.90
2022-09-23T23:06:48.046Z,85.61
2022-09-23T23:09:51.219Z,86.35
2022-09-23T23:12:53.563Z,86.11
2022-09-23T23:15:55.698Z,85.78
2022-09-23T23:18:58.123Z,86.33
2022-09-23T23:22:00.620Z,87.38
2022-09-23T23:25:02.970Z,86.92
2022-09-23T23:28:05.847Z,86.38
2022-09-23T23:31:10.964Z,85.93
2022-09-23T23:34:16.170Z,86.31
2022-09-23T23:37:20.937Z,86.31
2022-09-23T23:40:23.335Z,87.30
2022-09-23T23:43:25.749Z,86.57
2022-09-23T23:46:29.637Z,86.92
2022-09-23T23:49:32.069Z,87.68
2022-09-23T23:52:34.151Z,86.55
2022-09-23T23:55:39.225Z,87.09
2022-09-23T23:58:42.305Z,86.95
